x

Buoy I01 - Eastern Maine Shelf (44034) Wave Buoy

3:04pm - Wed 25th May 2016 All times are EDT. -4 hours from GMT.

  • Sig Wave height 3.6ft
  • Peak Period 8s
  • Wind
    9mph, 11mph gusts
  • Sea Temp 48°f
  • 空気 Temp 48°f
  • Sea Pressure 1014.1mb
  • Buoy I01 - Eastern Maine Shelf
  • Buoy I01 - Eastern Maine Shelf

More Historic Weather Station data

Upgrade to MSW Pro to gain access to the past 30 days of data for over 8000 Wavebouys and Weather Stations around the globe.

Join Pro

Comparision Forecast

View Surf forecast
   
Wed 05/25 3:04pm 3.5ft 8s 9 11 mph 1014.1mb 48f 48f
2:04pm 4.5ft 8s 13
mph
1014.3mb 48f 49f
1:04pm 3.5ft 8s 11 13 mph 1014.9mb 48f 49f
12:04pm 3.5ft 8s 11
mph
1015.1mb 48f 48f
11:04am 3.5ft 8s 4 7 mph 1015.2mb 47f 49f
10:04am 3ft 8s  -  2 mph 1015.3mb 48f 50f
9:04am 3ft 8s 2
mph
1015.3mb 47f 48f
8:04am 2.5ft 8s 7
mph
1015.5mb 47f 48f
7:04am 3ft 8s 9 11 mph 1015mb 47f 47f
6:04am 2.5ft 8s 7
mph
1014.1mb 47f 47f
5:04am 3.5ft 8s 7 9 mph 1014.3mb 47f 47f
4:04am 2.5ft 8s 7 9 mph 1014.4mb 47f 48f
3:04am 2.5ft 8s 9 11 mph 1013.9mb 47f 47f
2:04am 3ft 8s 9 11 mph 1013.6mb 47f 47f
1:04am 3ft 8s 7 16 mph 1014.3mb 47f 47f
12:04am 3ft 8s 4 7 mph 1014.6mb 47f 47f
Tue 05/24 11:04pm 3ft 8s 7 9 mph 1014.6mb 47f 47f
10:04pm 3.5ft 8s 9
mph
1015.2mb 47f 47f
9:04pm 3.5ft 8s 4 7 mph 1015.4mb 47f 47f
8:04pm 3.5ft 8s 7
mph
1015.2mb 47f 47f
7:04pm 3.5ft 8s 7
mph
1015mb 47f 48f
6:04pm 3.5ft 8s 7
mph
1014.9mb 47f 48f
5:04pm 3.5ft 8s 7
mph
1015mb 48f 48f
4:04pm 4ft 8s 9
mph
1015mb 48f 48f
3:04pm 3.5ft 8s 9 11 mph 1015mb 48f 48f
2:04pm 3.5ft 11s 11 13 mph 1015.1mb 48f 48f
1:04pm 4ft 8s 11 13 mph 1015.2mb 48f 48f
12:04pm 3.5ft 8s 11 13 mph 1015.6mb 48f 48f
11:04am 4.5ft 8s 16 18 mph 1015.5mb 48f 47f
10:04am 4ft 8s 13 18 mph 1015.9mb 47f 47f
9:04am 4.5ft 8s 11 16 mph 1016mb 47f 46f
8:04am 4ft 8s 13 18 mph 1015.2mb 47f 46f
5:04am 3.5ft 8s 7 9 mph 1015.5mb 47f 46f
4:04am 3.5ft 11s 11 13 mph 1015.5mb 48f 46f
3:04am 4.5ft 8s 7 9 mph 1014.7mb 48f 47f
2:04am 4ft 11s 9 11 mph 1014.1mb 49f 48f
1:04am 5ft 11s 4 7 mph 1014.3mb 48f 48f
12:04am 5ft 11s 7 9 mph 1014.2mb 48f 48f
Mon 05/23 11:04pm 5.5ft 11s 7 9 mph 1014.5mb 48f 49f
10:04pm 6ft 11s 7
mph
1014.1mb 48f 51f
9:04pm 6ft 11s 4 7 mph 1013.3mb 48f 50f
8:04pm 5.5ft 8s 7 9 mph 1012.7mb 49f 50f
7:04pm 6ft 11s 2 4 mph 1013.5mb 48f 50f
6:04pm 6ft 11s 4 7 mph 1013.1mb 48f 50f
5:04pm 5ft 11s 7
mph
1012.3mb 48f 52f
4:04pm 5ft 11s 2
mph
1012.2mb 48f 54f
3:04pm 5ft 11s 4 7 mph 1011.7mb 49f 52f
2:04pm 5.5ft 11s 7 9 mph 1011.8mb 48f 53f
1:04pm 5ft 11s 4 7 mph 1011.4mb 50f 52f
12:04pm 5ft 11s 7 9 mph 1010.9mb 48f 53f
11:04am 5ft 11s 9 11 mph 1010.9mb 47f 54f
10:04am 5ft 11s 7 11 mph 1011.2mb 47f 52f
9:04am 5ft 11s 11 13 mph 1011.4mb 47f 53f
8:04am 6ft 11s 13 16 mph 1011.1mb 47f 53f
7:04am  -   -  16 20 mph 1011mb - 54f
6:04am 7ft 11s 13 18 mph 1010.4mb 47f 53f
5:04am 6.5ft 11s 16 20 mph 1009.7mb 47f 52f
4:04am 5.5ft 11s 13 16 mph 1010mb 47f 52f
3:04am 5ft 11s 13 18 mph 1010mb 47f 52f
2:04am 2ft 5s 16 18 mph 1009.9mb 47f 53f
1:04am 3.5ft 11s 13 16 mph 1009.8mb 47f 51f
12:04am 4ft 11s 13 16 mph 1009.9mb 47f 53f
Sun 05/22 11:04pm 3.5ft 11s 13
mph
1009.9mb 47f 51f
10:04pm 3.5ft 11s 13 16 mph 1010mb 47f 51f
9:04pm  -   -  9 11 mph 1010.3mb 47f 51f
8:04pm 1.6ft 5s 9 11 mph 1009.5mb 48f 51f
7:04pm 1.6ft 5s 11 13 mph 1009.5mb 48f 51f
6:04pm 2ft 8s 13
mph
1009.3mb 48f 51f
5:04pm 1.6ft 8s 13
mph
1009.7mb 48f 51f
4:04pm 2ft 11s 11
mph
1010.1mb 48f 49f
3:04pm 1.6ft 8s 11
mph
1010.6mb 48f 49f
2:04pm 1.6ft 8s 11
mph
1011.4mb 48f 49f
1:04pm 2ft 8s 9 11 mph 1011.7mb 48f 50f
12:04pm 2ft 8s 7 9 mph 1011.8mb 48f 50f
11:04am 2ft 8s 7
mph
1011.8mb 48f 49f
10:04am 2ft 8s 7 9 mph 1012mb 47f 49f
9:04am 2.5ft 8s 9
mph
1012.2mb 47f 49f
8:04am 2.5ft 8s 9 11 mph 1012.6mb 47f 49f
7:04am 2.5ft 5s 9 11 mph 1012.3mb 47f 49f
6:04am 2.5ft 8s 9 11 mph 1012.7mb 47f 49f
5:04am 2ft 5s 9 11 mph 1012.3mb 48f 49f
4:04am 2.5ft 8s 9
mph
1012.3mb 48f 49f
3:04am 2.5ft 4s 9 11 mph 1012.5mb 47f 49f
2:04am 2.5ft 8s 9 11 mph 1012.7mb 48f 49f
1:04am 2.5ft 8s 7 9 mph 1013.3mb 48f 50f
12:04am 2.5ft 8s 9 11 mph 1013.7mb 48f 50f
Sat 05/21 11:04pm 2.5ft 8s 9 11 mph 1014.5mb 48f 50f
10:04pm 2.5ft 8s 13 16 mph 1014.9mb 48f 51f
9:04pm 2.5ft 8s 11 13 mph 1015.2mb 48f 50f